Warren, VT

6:29 AM EDT on September 19, 2014 (GMT -0400)
Rutland State | Change Station
CLOSE
Current Station
Airport
Location: Rutland,
Elevation: 787 ft
Nearby Weather Stations
Active Advisory: Freeze Warning Active Notice: Record Report

Elev 787 ft 43.53 °N, 72.95 °W | Updated 14 minutes ago

Overcast
Overcast
34 °F
Feels Like 34 °F
N
0
Wind Variable Wind from North

Today
High -- | Low -- °F
--% Chance of Precip.
Yesterday
High -- | Low -- °F
Precip. -- in
6:35 AM 6:54 PM
Waning Crescent, 20% visible
Pressure 30.33 in
Visibility 9.0 miles
Clouds Overcast 600 ft
Dew Point 32 °F
Humidity 93%
Rainfall 0.00 in
Snow Depth Not available.
UV 0 out of 12
Pollen 2.20 out of 12
Ozone Good
PM2.5 Good
Flu Activity Not available.
METAR KRUT 191015Z 00000KT 9SM OVC006 01/00 A3033 RMK AO1

More Conditions Fewer Conditions

Pressure 30.33 in
Visibility 9.0 miles
Clouds Overcast 600 ft
Dew Point 32 °F
Humidity 93%
Rainfall 0.00 in
Snow Depth Not available.
UV 0 out of 12
Pollen 2.20 out of 12
Ozone Good
PM2.5 Good
Flu Activity Not available.
METAR KRUT 191015Z 00000KT 9SM OVC006 01/00 A3033 RMK AO1

More Conditions Fewer Conditions

10-Day Weather Forecast

Almanac

Astronomy

Sep. 19, 2014 Rise Set
Actual Time 6:35 AM EDT 6:54 PM EDT
Civil Twilight 6:06 AM EDT 7:23 PM EDT
Nautical Twilight 5:32 AM EDT 7:57 PM EDT
Astronomical Twilight 4:57 AM EDT 8:32 PM EDT
Moon 2:10 AM EDT 4:27 PM EDT
Length of Visible Light 13h 17m
Length of Day
12h 19m
Tomorrow will be 3m 0s shorter.
Waning Crescent, 20% of the Moon is Illuminated
Today
Waning Crescent
Sep 24
New
Oct 1
First Quarter
Oct 8
Full
Oct 15
Last Quarter

Today's Extremes

State Highs State Lows

Community

WunderPhotos

Upload Photos

1,754,583 photos uploaded!

Nearby

Air Quality

  Air Quality AQ Index Pollutant
Yesterday Good
OZONE
Yesterday Good
PM2.5
Current Good
PM2.5
Current Good
OZONE
Friday Good
PM2.5
Friday Good
OZONE

Snow Depth

Station Depth Elevation
No new snow has been reported.

Earthquake Activity

City Distance Mag. Time & Date
No recent earthquake activity has been reported nearby.
Minimum magnitude displayed is 2.5.

Coastal Water Temperatures

Place Temperature
No Stations Reporting

Nearby Weather Stations